createdAt,value
2022-09-10T00:01:24.633Z,14.60
2022-09-10T00:03:54.666Z,14.50
2022-09-10T00:06:26.117Z,14.50
2022-09-10T00:08:56.336Z,14.40
2022-09-10T00:11:24.804Z,14.40
2022-09-10T00:13:52.966Z,14.40
2022-09-10T00:16:22.343Z,14.30
2022-09-10T00:18:51.223Z,14.30
2022-09-10T00:21:20.887Z,14.20
2022-09-10T00:23:49.005Z,14.20
2022-09-10T00:26:21.765Z,14.30
2022-09-10T00:28:50.367Z,14.30
2022-09-10T00:31:18.790Z,14.20
2022-09-10T00:33:48.067Z,14.20
2022-09-10T00:36:18.145Z,14.30
2022-09-10T00:38:46.520Z,14.30
2022-09-10T00:41:15.628Z,14.20
2022-09-10T00:43:50.325Z,14.30
2022-09-10T00:46:26.375Z,14.20
2022-09-10T00:48:58.213Z,14.30
2022-09-10T00:51:30.166Z,14.20
2022-09-10T00:53:59.540Z,14.10
2022-09-10T00:56:28.338Z,14.10
2022-09-10T00:58:56.731Z,14.10
2022-09-10T01:01:24.968Z,14.10
2022-09-10T01:03:55.858Z,14.00
2022-09-10T01:06:24.265Z,14.00
2022-09-10T01:08:52.458Z,14.00
2022-09-10T01:11:37.760Z,14.00
2022-09-10T01:14:26.877Z,13.90
2022-09-10T01:17:04.542Z,13.90
2022-09-10T01:20:15.370Z,13.90
2022-09-10T01:23:01.122Z,13.80
2022-09-10T01:25:41.586Z,13.90
2022-09-10T01:28:14.673Z,13.80
2022-09-10T01:30:46.003Z,13.80
2022-09-10T01:33:20.416Z,13.80
2022-09-10T01:35:53.710Z,13.80
2022-09-10T01:38:26.513Z,13.80
2022-09-10T01:40:56.297Z,13.80
2022-09-10T01:43:25.774Z,13.80
2022-09-10T01:46:05.635Z,13.70
2022-09-10T01:48:56.269Z,13.70
2022-09-10T01:51:35.293Z,13.70
2022-09-10T01:54:25.396Z,13.80
2022-09-10T01:57:05.054Z,13.80
2022-09-10T01:59:43.215Z,13.90
2022-09-10T02:02:17.401Z,13.90
2022-09-10T02:04:48.172Z,13.90
2022-09-10T02:07:18.872Z,14.00
2022-09-10T02:09:47.317Z,14.00
2022-09-10T02:12:20.097Z,14.00
2022-09-10T02:14:51.398Z,14.00
2022-09-10T02:17:20.246Z,14.10
2022-09-10T02:19:51.589Z,14.10
2022-09-10T02:22:23.759Z,14.10
2022-09-10T02:24:52.389Z,14.00
2022-09-10T02:27:20.688Z,14.00
2022-09-10T02:29:50.498Z,14.00
2022-09-10T02:32:18.402Z,14.10
2022-09-10T02:34:46.323Z,14.00
2022-09-10T02:37:14.257Z,14.00
2022-09-10T02:39:42.331Z,13.90
2022-09-10T02:42:10.277Z,13.90
2022-09-10T02:44:38.183Z,13.80
2022-09-10T02:47:07.752Z,13.90
2022-09-10T02:49:35.690Z,13.80
2022-09-10T02:52:04.618Z,13.80
2022-09-10T02:54:32.772Z,13.90
2022-09-10T02:57:01.020Z,13.90
2022-09-10T02:59:29.056Z,13.90
2022-09-10T03:01:57.347Z,13.90
2022-09-10T03:04:26.750Z,13.80
2022-09-10T03:06:55.371Z,13.80
2022-09-10T03:09:23.825Z,13.80
2022-09-10T03:11:51.935Z,13.80
2022-09-10T03:14:22.215Z,13.80
2022-09-10T03:16:50.861Z,13.80
2022-09-10T03:19:18.935Z,13.70
2022-09-10T03:21:48.251Z,13.70
2022-09-10T03:24:16.387Z,13.70
2022-09-10T03:26:44.547Z,13.70
2022-09-10T03:29:13.334Z,13.70
2022-09-10T03:31:42.636Z,13.60
2022-09-10T03:34:12.520Z,13.60
2022-09-10T03:36:40.487Z,13.60
2022-09-10T03:39:09.891Z,13.50
2022-09-10T03:41:37.900Z,13.50
2022-09-10T03:44:06.209Z,13.50
2022-09-10T03:46:34.342Z,13.50
2022-09-10T03:49:02.612Z,13.50
2022-09-10T03:51:31.144Z,13.50
2022-09-10T03:54:00.037Z,13.50
2022-09-10T03:56:29.417Z,13.60
2022-09-10T03:58:57.478Z,13.70
2022-09-10T04:01:25.855Z,13.70
2022-09-10T04:03:55.765Z,13.80
2022-09-10T04:06:23.795Z,13.80
2022-09-10T04:08:52.998Z,13.90
2022-09-10T04:11:20.946Z,13.90
2022-09-10T04:13:50.270Z,13.90
2022-09-10T04:16:18.544Z,13.90
2022-09-10T04:18:46.587Z,13.90
2022-09-10T04:21:14.565Z,13.90
2022-09-10T04:23:42.852Z,13.90
2022-09-10T04:26:14.804Z,13.90
2022-09-10T04:28:42.927Z,13.80
2022-09-10T04:31:12.432Z,13.80
2022-09-10T04:33:40.620Z,13.80
2022-09-10T04:36:09.260Z,13.70
2022-09-10T04:38:40.549Z,13.70
2022-09-10T04:41:08.961Z,13.60
2022-09-10T04:43:37.756Z,13.60
2022-09-10T04:46:05.707Z,13.60
2022-09-10T04:48:35.242Z,13.60
2022-09-10T07:33:11.685Z,16.70
2022-09-10T07:42:57.351Z,17.20
2022-09-10T07:45:25.981Z,17.30
2022-09-10T08:11:28.507Z,17.40
2022-09-10T08:13:56.947Z,17.40
2022-09-10T08:16:26.863Z,17.60
2022-09-10T08:18:56.844Z,17.60
2022-09-10T08:21:25.801Z,17.60
2022-09-10T08:23:55.478Z,17.80
2022-09-10T08:26:24.646Z,17.60
2022-09-10T08:28:55.881Z,17.50
2022-09-10T08:45:02.660Z,17.70
2022-09-10T08:47:35.726Z,17.90
2022-09-10T08:50:13.207Z,18.10
2022-09-10T08:52:45.112Z,18.50
2022-09-10T08:55:24.538Z,18.50
2022-09-10T08:57:56.560Z,18.30
2022-09-10T09:00:29.174Z,18.50
2022-09-10T09:03:03.764Z,18.50
2022-09-10T09:05:40.363Z,18.50
2022-09-10T09:08:12.088Z,18.70
2022-09-10T09:18:04.107Z,18.60
2022-09-10T09:20:44.798Z,18.60
2022-09-10T09:23:21.690Z,18.90
2022-09-10T09:40:21.659Z,18.60
2022-09-10T09:42:54.150Z,18.60
2022-09-10T09:45:28.386Z,18.80
2022-09-10T09:47:57.060Z,19.00
2022-09-10T10:45:28.718Z,20.40
2022-09-10T10:48:04.895Z,20.10
2022-09-10T10:50:39.871Z,19.90
2022-09-10T10:53:26.805Z,19.70
2022-09-10T11:03:19.106Z,19.80
2022-09-10T11:05:49.689Z,19.70
2022-09-10T11:08:30.345Z,19.70
2022-09-10T11:11:03.731Z,19.80
2022-09-10T11:13:42.275Z,19.80
2022-09-10T11:16:16.707Z,20.20
2022-09-10T11:18:50.995Z,20.30
2022-09-10T11:21:27.256Z,20.30
2022-09-10T11:24:01.391Z,20.50
2022-09-10T11:33:53.271Z,20.30
2022-09-10T11:43:52.346Z,20.20
2022-09-10T11:46:25.898Z,20.20
2022-09-10T11:49:03.558Z,20.50
2022-09-10T11:51:34.784Z,20.80
2022-09-10T11:54:04.852Z,21.10
2022-09-10T11:56:42.835Z,21.40
2022-09-10T11:59:27.139Z,21.60
2022-09-10T12:02:18.760Z,21.90
2022-09-10T12:04:55.180Z,21.80
2022-09-10T12:07:42.913Z,21.80
2022-09-10T12:10:20.512Z,21.70
2022-09-10T12:12:50.108Z,21.80
2022-09-10T12:15:23.100Z,21.80
2022-09-10T12:17:57.821Z,21.60
2022-09-10T12:20:30.027Z,21.70
2022-09-10T12:22:59.724Z,21.50
2022-09-10T12:25:34.358Z,21.20
2022-09-10T12:28:06.459Z,20.90
2022-09-10T12:31:03.884Z,20.80
2022-09-10T12:34:08.127Z,20.70
2022-09-10T12:37:17.159Z,20.50
2022-09-10T12:39:45.455Z,20.20
2022-09-10T12:42:31.563Z,19.90
2022-09-10T12:44:59.647Z,19.80
2022-09-10T12:47:53.158Z,19.80
2022-09-10T12:50:45.993Z,19.40
2022-09-10T12:53:50.674Z,19.30
2022-09-10T12:56:55.810Z,19.50
2022-09-10T12:59:43.246Z,19.70
2022-09-10T13:02:22.633Z,19.40
2022-09-10T13:04:59.665Z,19.40
2022-09-10T13:07:36.863Z,19.30
2022-09-10T13:10:21.053Z,19.00
2022-09-10T13:12:53.077Z,18.90
2022-09-10T13:15:24.081Z,18.90
2022-09-10T13:18:27.416Z,19.30
2022-09-10T13:20:58.632Z,20.00
2022-09-10T13:23:56.952Z,20.70
2022-09-10T13:26:52.351Z,21.60
2022-09-10T13:29:33.610Z,23.60
2022-09-10T13:32:11.164Z,24.40
2022-09-10T13:35:19.602Z,24.30
2022-09-10T13:38:08.632Z,24.70
2022-09-10T13:41:08.346Z,24.70
2022-09-10T13:43:49.809Z,24.40
2022-09-10T13:46:26.712Z,23.80
2022-09-10T13:49:04.432Z,24.00
2022-09-10T13:51:36.990Z,24.80
2022-09-10T13:54:15.158Z,24.20
2022-09-10T13:56:44.896Z,23.80
2022-09-10T13:59:20.490Z,23.30
2022-09-10T14:01:53.363Z,22.70
2022-09-10T14:04:26.725Z,22.10
2022-09-10T14:06:58.625Z,20.90
2022-09-10T14:09:28.575Z,20.50
2022-09-10T14:11:59.918Z,20.00
2022-09-10T14:14:31.030Z,19.40
2022-09-10T14:17:03.708Z,19.00
2022-09-10T14:19:36.701Z,19.40
2022-09-10T14:22:09.864Z,20.60
2022-09-10T14:24:54.492Z,20.50
2022-09-10T14:27:27.053Z,21.20
2022-09-10T14:29:56.723Z,23.60
2022-09-10T14:32:30.137Z,24.00
2022-09-10T14:34:59.620Z,23.10
2022-09-10T14:37:33.433Z,22.60
2022-09-10T14:40:17.422Z,22.20
2022-09-10T14:42:47.125Z,22.10
2022-09-10T14:45:40.874Z,21.90
2022-09-10T14:48:35.630Z,21.70
2022-09-10T14:51:12.474Z,21.70
2022-09-10T14:53:41.767Z,21.30
2022-09-10T14:56:22.264Z,21.20
2022-09-10T14:58:59.880Z,20.90
2022-09-10T15:01:28.501Z,20.80
2022-09-10T15:03:57.334Z,20.70
2022-09-10T15:06:26.974Z,20.50
2022-09-10T15:08:56.133Z,20.60
2022-09-10T15:11:27.890Z,20.60
2022-09-10T15:13:58.767Z,20.50
2022-09-10T15:16:27.538Z,20.40
2022-09-10T15:18:55.498Z,20.30
2022-09-10T15:21:23.558Z,20.20
2022-09-10T15:23:51.942Z,19.80
2022-09-10T15:26:19.912Z,19.70
2022-09-10T15:28:49.212Z,19.80
2022-09-10T15:31:18.326Z,19.70
2022-09-10T15:33:46.287Z,19.90
2022-09-10T15:36:14.205Z,20.00
2022-09-10T15:38:42.813Z,20.80
2022-09-10T15:41:13.121Z,22.30
2022-09-10T15:43:43.702Z,22.20
2022-09-10T15:46:14.737Z,21.90
2022-09-10T15:48:42.813Z,21.70
2022-09-10T15:51:21.386Z,21.30
2022-09-10T15:53:49.977Z,21.20
2022-09-10T15:56:18.609Z,20.90
2022-09-10T15:58:50.053Z,20.70
2022-09-10T16:01:19.849Z,20.60
2022-09-10T16:03:50.182Z,20.40
2022-09-10T16:06:20.661Z,20.10
2022-09-10T16:08:50.541Z,19.90
2022-09-10T16:11:19.138Z,19.80
2022-09-10T16:13:47.187Z,19.70
2022-09-10T16:16:19.701Z,19.60
2022-09-10T16:18:51.313Z,19.50
2022-09-10T16:21:22.349Z,19.50
2022-09-10T16:23:52.621Z,19.50
2022-09-10T16:26:23.025Z,19.50
2022-09-10T16:28:51.561Z,19.40
2022-09-10T16:31:23.156Z,19.30
2022-09-10T16:33:55.095Z,19.20
2022-09-10T16:36:25.056Z,19.20
2022-09-10T16:38:54.607Z,19.20
2022-09-10T16:41:23.576Z,19.10
2022-09-10T16:43:51.791Z,19.00
2022-09-10T16:46:21.281Z,18.90
2022-09-10T16:48:52.813Z,18.90
2022-09-10T16:51:24.360Z,18.80
2022-09-10T16:53:56.902Z,18.70
2022-09-10T16:56:26.604Z,18.70
2022-09-10T16:58:54.685Z,18.60
2022-09-10T17:01:24.123Z,18.50
2022-09-10T17:03:52.141Z,18.50
2022-09-10T17:06:21.850Z,18.50
2022-09-10T17:08:50.158Z,18.50
2022-09-10T17:11:19.596Z,18.50
2022-09-10T17:13:48.133Z,18.50
2022-09-10T17:16:18.127Z,18.50
2022-09-10T17:18:48.160Z,18.50
2022-09-10T17:21:16.093Z,18.50
2022-09-10T17:23:46.589Z,18.50
2022-09-10T17:26:14.655Z,18.30
2022-09-10T17:28:43.027Z,18.20
2022-09-10T17:31:11.051Z,18.10
2022-09-10T17:33:39.036Z,17.90
2022-09-10T17:36:08.734Z,17.90
2022-09-10T17:38:37.090Z,17.80
2022-09-10T17:41:05.918Z,17.70
2022-09-10T17:43:37.394Z,17.70
2022-09-10T17:46:06.659Z,17.60
2022-09-10T17:48:35.657Z,17.50
2022-09-10T17:51:04.205Z,17.40
2022-09-10T17:53:34.133Z,17.30
2022-09-10T17:56:06.253Z,17.30
2022-09-10T17:58:35.203Z,17.20
2022-09-10T18:01:06.307Z,17.10
2022-09-10T18:03:34.414Z,17.00
2022-09-10T18:06:05.186Z,17.00
2022-09-10T18:08:34.737Z,16.90
2022-09-10T18:11:05.818Z,16.80
2022-09-10T18:13:34.409Z,16.70
2022-09-10T18:16:07.493Z,16.70
2022-09-10T18:18:36.037Z,16.60
2022-09-10T18:21:15.038Z,16.60
2022-09-10T18:23:44.826Z,16.50
2022-09-10T18:26:14.466Z,16.50
2022-09-10T18:28:43.002Z,16.40
2022-09-10T18:31:11.922Z,16.40
2022-09-10T18:33:41.702Z,16.20
2022-09-10T18:36:14.942Z,16.20
2022-09-10T18:38:45.017Z,16.20
2022-09-10T18:41:24.870Z,16.20
2022-09-10T18:43:54.903Z,16.10
2022-09-10T18:46:23.671Z,16.20
2022-09-10T18:48:52.646Z,16.20
2022-09-10T18:51:23.629Z,16.30
2022-09-10T18:53:56.312Z,16.40
2022-09-10T18:56:27.338Z,16.30
2022-09-10T18:58:58.573Z,16.30
2022-09-10T19:01:28.525Z,16.30
2022-09-10T19:03:57.552Z,16.40
2022-09-10T19:06:27.215Z,16.50
2022-09-10T19:08:58.977Z,16.50
2022-09-10T19:11:28.821Z,16.50
2022-09-10T19:13:58.488Z,16.50
2022-09-10T19:16:28.625Z,16.50
2022-09-10T19:18:58.967Z,16.40
2022-09-10T19:21:28.833Z,16.50
2022-09-10T19:24:00.462Z,16.40
2022-09-10T19:26:30.751Z,16.40
2022-09-10T19:29:00.317Z,16.40
2022-09-10T19:31:30.099Z,16.40
2022-09-10T19:34:00.246Z,16.40
2022-09-10T19:36:30.876Z,16.40
2022-09-10T19:39:01.840Z,16.40
2022-09-10T19:41:29.798Z,16.40
2022-09-10T19:43:58.238Z,16.40
2022-09-10T19:46:28.403Z,16.40
2022-09-10T19:48:59.374Z,16.40
